sensor_id;sensor_type;location;lat;lon;timestamp;temperature;humidity
3713;DHT22;1872;51.406;6.856;2023-09-07T00:01:43;18.80;99.90
3713;DHT22;1872;51.406;6.856;2023-09-07T00:04:09;18.70;99.90
3713;DHT22;1872;51.406;6.856;2023-09-07T00:06:35;18.70;99.90
3713;DHT22;1872;51.406;6.856;2023-09-07T00:09:02;18.70;99.90
3713;DHT22;1872;51.406;6.856;2023-09-07T00:11:29;18.70;99.90
3713;DHT22;1872;51.406;6.856;2023-09-07T00:13:55;18.60;99.90
3713;DHT22;1872;51.406;6.856;2023-09-07T00:16:21;18.60;99.90
3713;DHT22;1872;51.406;6.856;2023-09-07T00:18:47;18.60;99.90
3713;DHT22;1872;51.406;6.856;2023-09-07T00:21:12;18.60;99.90
3713;DHT22;1872;51.406;6.856;2023-09-07T00:23:40;18.60;99.90
3713;DHT22;1872;51.406;6.856;2023-09-07T00:26:05;18.50;99.90
3713;DHT22;1872;51.406;6.856;2023-09-07T00:28:31;18.50;99.90
3713;DHT22;1872;51.406;6.856;2023-09-07T00:30:57;18.50;99.90
3713;DHT22;1872;51.406;6.856;2023-09-07T00:33:22;18.40;99.90
3713;DHT22;1872;51.406;6.856;2023-09-07T00:35:48;18.40;99.90
3713;DHT22;1872;51.406;6.856;2023-09-07T00:38:13;18.40;99.90
3713;DHT22;1872;51.406;6.856;2023-09-07T00:40:43;18.40;99.90
3713;DHT22;1872;51.406;6.856;2023-09-07T00:43:09;18.30;99.90
3713;DHT22;1872;51.406;6.856;2023-09-07T00:45:35;18.30;99.90
3713;DHT22;1872;51.406;6.856;2023-09-07T00:48:00;18.30;99.90
3713;DHT22;1872;51.406;6.856;2023-09-07T00:50:26;18.30;99.90
3713;DHT22;1872;51.406;6.856;2023-09-07T00:52:52;18.30;99.90
3713;DHT22;1872;51.406;6.856;2023-09-07T00:55:17;18.30;99.90
3713;DHT22;1872;51.406;6.856;2023-09-07T00:57:43;18.30;99.90
3713;DHT22;1872;51.406;6.856;2023-09-07T01:00:09;18.30;99.90
3713;DHT22;1872;51.406;6.856;2023-09-07T01:02:35;18.30;99.90
3713;DHT22;1872;51.406;6.856;2023-09-07T01:05:04;18.30;99.90
3713;DHT22;1872;51.406;6.856;2023-09-07T01:07:37;18.30;99.90
3713;DHT22;1872;51.406;6.856;2023-09-07T01:10:03;18.30;99.90
3713;DHT22;1872;51.406;6.856;2023-09-07T01:12:29;18.30;99.90
3713;DHT22;1872;51.406;6.856;2023-09-07T01:14:56;18.30;99.90
3713;DHT22;1872;51.406;6.856;2023-09-07T01:17:22;18.30;99.90
3713;DHT22;1872;51.406;6.856;2023-09-07T01:19:52;18.30;99.90
3713;DHT22;1872;51.406;6.856;2023-09-07T01:22:19;18.30;99.90
3713;DHT22;1872;51.406;6.856;2023-09-07T01:24:45;18.30;99.90
3713;DHT22;1872;51.406;6.856;2023-09-07T01:27:12;18.30;99.90
3713;DHT22;1872;51.406;6.856;2023-09-07T01:29:39;18.30;99.90
3713;DHT22;1872;51.406;6.856;2023-09-07T01:32:06;18.30;99.90
3713;DHT22;1872;51.406;6.856;2023-09-07T01:34:32;18.30;99.90
3713;DHT22;1872;51.406;6.856;2023-09-07T01:36:57;18.40;99.90
3713;DHT22;1872;51.406;6.856;2023-09-07T01:39:23;18.40;99.90
3713;DHT22;1872;51.406;6.856;2023-09-07T01:41:48;18.40;99.90
3713;DHT22;1872;51.406;6.856;2023-09-07T01:44:14;18.40;99.90
3713;DHT22;1872;51.406;6.856;2023-09-07T01:46:40;18.30;99.90
3713;DHT22;1872;51.406;6.856;2023-09-07T01:49:05;18.40;99.90
3713;DHT22;1872;51.406;6.856;2023-09-07T01:51:31;18.30;99.90
3713;DHT22;1872;51.406;6.856;2023-09-07T01:53:57;18.30;99.90
3713;DHT22;1872;51.406;6.856;2023-09-07T01:56:23;18.30;99.90
3713;DHT22;1872;51.406;6.856;2023-09-07T01:58:49;18.30;99.90
3713;DHT22;1872;51.406;6.856;2023-09-07T02:01:41;18.30;99.90
3713;DHT22;1872;51.406;6.856;2023-09-07T02:04:06;18.20;99.90
3713;DHT22;1872;51.406;6.856;2023-09-07T02:06:32;18.20;99.90
3713;DHT22;1872;51.406;6.856;2023-09-07T02:08:58;18.20;99.90
3713;DHT22;1872;51.406;6.856;2023-09-07T02:11:23;18.20;99.90
3713;DHT22;1872;51.406;6.856;2023-09-07T02:13:49;18.10;99.90
3713;DHT22;1872;51.406;6.856;2023-09-07T02:16:15;18.10;99.90
3713;DHT22;1872;51.406;6.856;2023-09-07T02:18:42;18.10;99.90
3713;DHT22;1872;51.406;6.856;2023-09-07T02:21:12;18.10;99.90
3713;DHT22;1872;51.406;6.856;2023-09-07T02:23:38;18.10;99.90
3713;DHT22;1872;51.406;6.856;2023-09-07T02:26:04;18.10;99.90
3713;DHT22;1872;51.406;6.856;2023-09-07T02:28:31;18.10;99.90
3713;DHT22;1872;51.406;6.856;2023-09-07T02:31:06;18.00;99.90
3713;DHT22;1872;51.406;6.856;2023-09-07T02:33:32;18.00;99.90
3713;DHT22;1872;51.406;6.856;2023-09-07T02:35:58;18.00;99.90
3713;DHT22;1872;51.406;6.856;2023-09-07T02:38:24;18.00;99.90
3713;DHT22;1872;51.406;6.856;2023-09-07T02:40:49;18.00;99.90
3713;DHT22;1872;51.406;6.856;2023-09-07T02:43:15;18.00;99.90
3713;DHT22;1872;51.406;6.856;2023-09-07T02:45:42;17.90;99.90
3713;DHT22;1872;51.406;6.856;2023-09-07T02:48:07;17.90;99.90
3713;DHT22;1872;51.406;6.856;2023-09-07T02:50:34;17.80;99.90
3713;DHT22;1872;51.406;6.856;2023-09-07T02:53:00;17.80;99.90
3713;DHT22;1872;51.406;6.856;2023-09-07T02:55:27;17.80;99.90
3713;DHT22;1872;51.406;6.856;2023-09-07T02:57:52;17.70;99.90
3713;DHT22;1872;51.406;6.856;2023-09-07T03:00:19;17.70;99.90
3713;DHT22;1872;51.406;6.856;2023-09-07T03:02:44;17.70;99.90
3713;DHT22;1872;51.406;6.856;2023-09-07T03:05:10;17.60;99.90
3713;DHT22;1872;51.406;6.856;2023-09-07T03:07:37;17.60;99.90
3713;DHT22;1872;51.406;6.856;2023-09-07T03:10:05;17.60;99.90
3713;DHT22;1872;51.406;6.856;2023-09-07T03:12:30;17.50;99.90
3713;DHT22;1872;51.406;6.856;2023-09-07T03:14:56;17.50;99.90
3713;DHT22;1872;51.406;6.856;2023-09-07T03:17:21;17.50;99.90
3713;DHT22;1872;51.406;6.856;2023-09-07T03:19:47;17.50;99.90
3713;DHT22;1872;51.406;6.856;2023-09-07T03:22:13;17.40;99.90
3713;DHT22;1872;51.406;6.856;2023-09-07T03:24:39;17.40;99.90
3713;DHT22;1872;51.406;6.856;2023-09-07T03:27:05;17.40;99.90
3713;DHT22;1872;51.406;6.856;2023-09-07T03:29:31;17.30;99.90
3713;DHT22;1872;51.406;6.856;2023-09-07T03:31:59;17.30;99.90
3713;DHT22;1872;51.406;6.856;2023-09-07T03:34:25;17.30;99.90
3713;DHT22;1872;51.406;6.856;2023-09-07T03:36:51;17.30;99.90
3713;DHT22;1872;51.406;6.856;2023-09-07T03:39:17;17.30;99.90
3713;DHT22;1872;51.406;6.856;2023-09-07T03:41:44;17.30;99.90
3713;DHT22;1872;51.406;6.856;2023-09-07T03:44:10;17.20;99.90
3713;DHT22;1872;51.406;6.856;2023-09-07T03:46:35;17.20;99.90
3713;DHT22;1872;51.406;6.856;2023-09-07T03:49:01;17.20;99.90
3713;DHT22;1872;51.406;6.856;2023-09-07T03:51:27;17.20;99.90
3713;DHT22;1872;51.406;6.856;2023-09-07T03:53:52;17.10;99.90
3713;DHT22;1872;51.406;6.856;2023-09-07T03:56:18;17.10;99.90
3713;DHT22;1872;51.406;6.856;2023-09-07T03:58:43;17.10;99.90
3713;DHT22;1872;51.406;6.856;2023-09-07T04:01:09;17.00;99.90
3713;DHT22;1872;51.406;6.856;2023-09-07T04:03:35;17.00;99.90
3713;DHT22;1872;51.406;6.856;2023-09-07T04:06:00;17.00;99.90
3713;DHT22;1872;51.406;6.856;2023-09-07T04:08:26;17.00;99.90
3713;DHT22;1872;51.406;6.856;2023-09-07T04:10:52;17.00;99.90
3713;DHT22;1872;51.406;6.856;2023-09-07T04:13:17;17.00;99.90
3713;DHT22;1872;51.406;6.856;2023-09-07T04:15:44;17.00;99.90
3713;DHT22;1872;51.406;6.856;2023-09-07T04:18:14;16.90;99.90
3713;DHT22;1872;51.406;6.856;2023-09-07T04:20:41;16.90;99.90
3713;DHT22;1872;51.406;6.856;2023-09-07T04:23:07;16.90;99.90
3713;DHT22;1872;51.406;6.856;2023-09-07T04:25:33;16.90;99.90
3713;DHT22;1872;51.406;6.856;2023-09-07T04:27:58;16.90;99.90
3713;DHT22;1872;51.406;6.856;2023-09-07T04:30:24;16.80;99.90
3713;DHT22;1872;51.406;6.856;2023-09-07T04:32:50;16.80;99.90
3713;DHT22;1872;51.406;6.856;2023-09-07T04:35:15;16.80;99.90
3713;DHT22;1872;51.406;6.856;2023-09-07T04:37:45;16.70;99.90
3713;DHT22;1872;51.406;6.856;2023-09-07T04:40:11;16.80;99.90
3713;DHT22;1872;51.406;6.856;2023-09-07T04:42:37;16.70;99.90
3713;DHT22;1872;51.406;6.856;2023-09-07T04:45:06;16.70;99.90
3713;DHT22;1872;51.406;6.856;2023-09-07T04:47:31;16.60;99.90
3713;DHT22;1872;51.406;6.856;2023-09-07T04:49:58;16.60;99.90
3713;DHT22;1872;51.406;6.856;2023-09-07T04:52:23;16.60;99.90
3713;DHT22;1872;51.406;6.856;2023-09-07T04:54:50;16.60;99.90
3713;DHT22;1872;51.406;6.856;2023-09-07T04:57:16;16.60;99.90
3713;DHT22;1872;51.406;6.856;2023-09-07T04:59:44;16.60;99.90
3713;DHT22;1872;51.406;6.856;2023-09-07T05:02:10;16.50;99.90
3713;DHT22;1872;51.406;6.856;2023-09-07T05:04:37;16.50;99.90
3713;DHT22;1872;51.406;6.856;2023-09-07T05:07:03;16.50;99.90
3713;DHT22;1872;51.406;6.856;2023-09-07T05:09:29;16.50;99.90
3713;DHT22;1872;51.406;6.856;2023-09-07T05:11:55;16.50;99.90
3713;DHT22;1872;51.406;6.856;2023-09-07T05:14:22;16.50;99.90
3713;DHT22;1872;51.406;6.856;2023-09-07T05:16:48;16.50;99.90
3713;DHT22;1872;51.406;6.856;2023-09-07T05:19:14;16.50;99.90
3713;DHT22;1872;51.406;6.856;2023-09-07T05:21:39;16.50;99.90
3713;DHT22;1872;51.406;6.856;2023-09-07T05:24:05;16.50;99.90
3713;DHT22;1872;51.406;6.856;2023-09-07T05:26:31;16.50;99.90
3713;DHT22;1872;51.406;6.856;2023-09-07T05:28:56;16.50;99.90
3713;DHT22;1872;51.406;6.856;2023-09-07T05:31:22;16.50;99.90
3713;DHT22;1872;51.406;6.856;2023-09-07T05:33:48;16.60;99.90
3713;DHT22;1872;51.406;6.856;2023-09-07T05:36:13;16.60;99.90
3713;DHT22;1872;51.406;6.856;2023-09-07T05:38:39;16.60;99.90
3713;DHT22;1872;51.406;6.856;2023-09-07T05:41:04;16.60;99.90
3713;DHT22;1872;51.406;6.856;2023-09-07T05:43:30;16.60;99.90
3713;DHT22;1872;51.406;6.856;2023-09-07T05:45:56;16.60;99.90
3713;DHT22;1872;51.406;6.856;2023-09-07T05:48:21;16.70;99.90
3713;DHT22;1872;51.406;6.856;2023-09-07T05:50:47;16.60;99.90
3713;DHT22;1872;51.406;6.856;2023-09-07T05:53:13;16.70;99.90
3713;DHT22;1872;51.406;6.856;2023-09-07T05:55:38;16.70;99.90
3713;DHT22;1872;51.406;6.856;2023-09-07T05:58:06;16.70;99.90
3713;DHT22;1872;51.406;6.856;2023-09-07T06:00:33;16.70;99.90
3713;DHT22;1872;51.406;6.856;2023-09-07T06:02:59;16.80;99.90
3713;DHT22;1872;51.406;6.856;2023-09-07T06:05:24;16.80;99.90
3713;DHT22;1872;51.406;6.856;2023-09-07T06:07:50;16.90;99.90
3713;DHT22;1872;51.406;6.856;2023-09-07T06:10:16;16.90;99.90
3713;DHT22;1872;51.406;6.856;2023-09-07T06:12:42;17.00;99.90
3713;DHT22;1872;51.406;6.856;2023-09-07T06:15:11;17.10;99.90
3713;DHT22;1872;51.406;6.856;2023-09-07T06:17:36;17.10;99.90
3713;DHT22;1872;51.406;6.856;2023-09-07T06:20:02;17.20;99.90
3713;DHT22;1872;51.406;6.856;2023-09-07T06:22:28;17.20;99.90
3713;DHT22;1872;51.406;6.856;2023-09-07T06:24:54;17.30;99.90
3713;DHT22;1872;51.406;6.856;2023-09-07T06:27:20;17.30;99.90
3713;DHT22;1872;51.406;6.856;2023-09-07T06:29:45;17.40;99.90
3713;DHT22;1872;51.406;6.856;2023-09-07T06:32:11;17.60;99.90
3713;DHT22;1872;51.406;6.856;2023-09-07T06:34:37;17.70;99.90
3713;DHT22;1872;51.406;6.856;2023-09-07T06:37:03;17.90;99.90
3713;DHT22;1872;51.406;6.856;2023-09-07T06:39:28;18.10;99.90
3713;DHT22;1872;51.406;6.856;2023-09-07T06:41:54;18.20;99.90
3713;DHT22;1872;51.406;6.856;2023-09-07T06:44:20;18.40;99.90
3713;DHT22;1872;51.406;6.856;2023-09-07T06:46:45;18.60;99.90
3713;DHT22;1872;51.406;6.856;2023-09-07T06:49:12;18.90;99.90
3713;DHT22;1872;51.406;6.856;2023-09-07T06:51:37;19.10;99.90
3713;DHT22;1872;51.406;6.856;2023-09-07T06:54:03;19.30;99.90
3713;DHT22;1872;51.406;6.856;2023-09-07T06:56:29;19.60;99.90
3713;DHT22;1872;51.406;6.856;2023-09-07T06:58:56;19.90;99.90
3713;DHT22;1872;51.406;6.856;2023-09-07T07:01:22;20.30;99.90
3713;DHT22;1872;51.406;6.856;2023-09-07T07:03:48;20.70;99.90
3713;DHT22;1872;51.406;6.856;2023-09-07T07:06:14;21.10;99.90
3713;DHT22;1872;51.406;6.856;2023-09-07T07:08:40;21.50;99.90
3713;DHT22;1872;51.406;6.856;2023-09-07T07:11:05;21.70;99.90
3713;DHT22;1872;51.406;6.856;2023-09-07T07:13:31;22.10;99.90
3713;DHT22;1872;51.406;6.856;2023-09-07T07:15:57;22.50;99.90
3713;DHT22;1872;51.406;6.856;2023-09-07T07:18:22;22.90;99.90
3713;DHT22;1872;51.406;6.856;2023-09-07T07:20:48;23.20;99.90
3713;DHT22;1872;51.406;6.856;2023-09-07T07:23:16;23.40;99.90
3713;DHT22;1872;51.406;6.856;2023-09-07T07:25:42;23.60;99.90
3713;DHT22;1872;51.406;6.856;2023-09-07T07:28:07;23.80;99.90
3713;DHT22;1872;51.406;6.856;2023-09-07T07:30:38;24.10;99.90
3713;DHT22;1872;51.406;6.856;2023-09-07T07:33:08;24.40;99.90
3713;DHT22;1872;51.406;6.856;2023-09-07T07:35:34;24.60;99.90
3713;DHT22;1872;51.406;6.856;2023-09-07T07:38:01;24.90;99.90
3713;DHT22;1872;51.406;6.856;2023-09-07T07:40:27;25.00;99.90
3713;DHT22;1872;51.406;6.856;2023-09-07T07:42:53;25.30;99.90
3713;DHT22;1872;51.406;6.856;2023-09-07T07:45:19;25.40;99.90
3713;DHT22;1872;51.406;6.856;2023-09-07T07:47:51;25.50;99.90
3713;DHT22;1872;51.406;6.856;2023-09-07T07:50:17;25.70;99.90
3713;DHT22;1872;51.406;6.856;2023-09-07T07:52:43;26.00;99.90
3713;DHT22;1872;51.406;6.856;2023-09-07T07:55:10;26.20;99.90
3713;DHT22;1872;51.406;6.856;2023-09-07T07:57:35;26.40;99.90
3713;DHT22;1872;51.406;6.856;2023-09-07T08:00:02;26.60;99.90
3713;DHT22;1872;51.406;6.856;2023-09-07T08:02:29;26.70;99.90
3713;DHT22;1872;51.406;6.856;2023-09-07T08:04:55;26.90;99.90
3713;DHT22;1872;51.406;6.856;2023-09-07T08:07:21;27.10;99.90
3713;DHT22;1872;51.406;6.856;2023-09-07T08:09:46;27.20;99.90
3713;DHT22;1872;51.406;6.856;2023-09-07T08:12:12;27.30;99.90
3713;DHT22;1872;51.406;6.856;2023-09-07T08:14:38;27.50;99.90
3713;DHT22;1872;51.406;6.856;2023-09-07T08:17:03;27.60;99.90
3713;DHT22;1872;51.406;6.856;2023-09-07T08:19:29;27.70;99.90
3713;DHT22;1872;51.406;6.856;2023-09-07T08:21:55;27.80;99.90
3713;DHT22;1872;51.406;6.856;2023-09-07T08:24:21;27.90;99.90
3713;DHT22;1872;51.406;6.856;2023-09-07T08:26:46;28.00;99.90
3713;DHT22;1872;51.406;6.856;2023-09-07T08:29:17;28.10;99.90
3713;DHT22;1872;51.406;6.856;2023-09-07T08:31:46;28.30;99.90
3713;DHT22;1872;51.406;6.856;2023-09-07T08:34:13;28.50;99.90
3713;DHT22;1872;51.406;6.856;2023-09-07T08:36:40;28.50;99.90
3713;DHT22;1872;51.406;6.856;2023-09-07T08:39:06;28.60;99.90
3713;DHT22;1872;51.406;6.856;2023-09-07T08:41:42;28.50;99.90
3713;DHT22;1872;51.406;6.856;2023-09-07T08:44:18;28.40;99.90
3713;DHT22;1872;51.406;6.856;2023-09-07T08:46:46;28.30;99.90
3713;DHT22;1872;51.406;6.856;2023-09-07T08:49:12;28.10;99.90
3713;DHT22;1872;51.406;6.856;2023-09-07T08:51:38;28.00;99.90
3713;DHT22;1872;51.406;6.856;2023-09-07T08:54:05;27.90;99.90
3713;DHT22;1872;51.406;6.856;2023-09-07T08:56:32;27.80;99.90
3713;DHT22;1872;51.406;6.856;2023-09-07T08:58:57;27.80;99.90
3713;DHT22;1872;51.406;6.856;2023-09-07T09:01:23;27.70;99.90
3713;DHT22;1872;51.406;6.856;2023-09-07T09:03:50;27.60;99.90
3713;DHT22;1872;51.406;6.856;2023-09-07T09:06:20;27.60;99.90
3713;DHT22;1872;51.406;6.856;2023-09-07T09:08:53;27.50;99.90
3713;DHT22;1872;51.406;6.856;2023-09-07T09:11:20;27.40;99.90
3713;DHT22;1872;51.406;6.856;2023-09-07T09:13:46;27.30;99.90
3713;DHT22;1872;51.406;6.856;2023-09-07T09:16:13;27.30;99.90
3713;DHT22;1872;51.406;6.856;2023-09-07T09:18:49;27.20;99.90
3713;DHT22;1872;51.406;6.856;2023-09-07T09:21:18;27.20;99.90
3713;DHT22;1872;51.406;6.856;2023-09-07T09:23:50;27.10;99.90
3713;DHT22;1872;51.406;6.856;2023-09-07T09:26:17;27.00;99.90
3713;DHT22;1872;51.406;6.856;2023-09-07T09:28:43;26.90;99.90
3713;DHT22;1872;51.406;6.856;2023-09-07T09:31:12;26.80;99.90
3713;DHT22;1872;51.406;6.856;2023-09-07T09:33:40;26.80;99.90
3713;DHT22;1872;51.406;6.856;2023-09-07T09:36:07;26.70;99.90
3713;DHT22;1872;51.406;6.856;2023-09-07T09:38:33;26.60;99.90
3713;DHT22;1872;51.406;6.856;2023-09-07T09:40:59;26.60;99.90
3713;DHT22;1872;51.406;6.856;2023-09-07T09:43:26;26.60;99.90
3713;DHT22;1872;51.406;6.856;2023-09-07T09:45:52;26.60;99.90
3713;DHT22;1872;51.406;6.856;2023-09-07T09:48:21;26.60;99.90
3713;DHT22;1872;51.406;6.856;2023-09-07T09:50:47;26.50;99.90
3713;DHT22;1872;51.406;6.856;2023-09-07T09:53:17;26.40;99.90
3713;DHT22;1872;51.406;6.856;2023-09-07T09:55:46;26.40;99.90
3713;DHT22;1872;51.406;6.856;2023-09-07T09:58:13;26.30;99.90
3713;DHT22;1872;51.406;6.856;2023-09-07T10:00:42;26.30;99.90
3713;DHT22;1872;51.406;6.856;2023-09-07T10:03:12;26.30;99.90
3713;DHT22;1872;51.406;6.856;2023-09-07T10:05:39;26.30;99.90
3713;DHT22;1872;51.406;6.856;2023-09-07T10:08:11;26.30;99.90
3713;DHT22;1872;51.406;6.856;2023-09-07T10:10:38;26.30;99.90
3713;DHT22;1872;51.406;6.856;2023-09-07T10:13:05;26.30;99.90
3713;DHT22;1872;51.406;6.856;2023-09-07T10:15:31;26.40;99.90
3713;DHT22;1872;51.406;6.856;2023-09-07T10:18:11;26.40;99.90
3713;DHT22;1872;51.406;6.856;2023-09-07T10:20:57;26.30;99.90
3713;DHT22;1872;51.406;6.856;2023-09-07T10:23:43;26.20;99.90
3713;DHT22;1872;51.406;6.856;2023-09-07T10:26:18;26.20;99.90
3713;DHT22;1872;51.406;6.856;2023-09-07T10:28:47;26.20;99.90
3713;DHT22;1872;51.406;6.856;2023-09-07T10:31:25;26.10;99.90
3713;DHT22;1872;51.406;6.856;2023-09-07T10:33:51;26.00;99.90
3713;DHT22;1872;51.406;6.856;2023-09-07T10:36:27;26.00;99.90
3713;DHT22;1872;51.406;6.856;2023-09-07T10:38:55;26.00;99.90
3713;DHT22;1872;51.406;6.856;2023-09-07T10:41:22;26.00;99.90
3713;DHT22;1872;51.406;6.856;2023-09-07T10:43:50;26.00;99.90
3713;DHT22;1872;51.406;6.856;2023-09-07T10:46:18;26.10;99.90
3713;DHT22;1872;51.406;6.856;2023-09-07T10:48:45;26.00;99.90
3713;DHT22;1872;51.406;6.856;2023-09-07T10:51:11;26.10;99.90
3713;DHT22;1872;51.406;6.856;2023-09-07T10:53:36;26.00;99.90
3713;DHT22;1872;51.406;6.856;2023-09-07T10:56:03;26.00;99.90
3713;DHT22;1872;51.406;6.856;2023-09-07T10:58:34;26.00;99.90
3713;DHT22;1872;51.406;6.856;2023-09-07T11:01:01;26.00;99.90
3713;DHT22;1872;51.406;6.856;2023-09-07T11:03:29;26.10;99.90
3713;DHT22;1872;51.406;6.856;2023-09-07T11:06:01;26.30;99.90
3713;DHT22;1872;51.406;6.856;2023-09-07T11:08:31;26.40;99.90
3713;DHT22;1872;51.406;6.856;2023-09-07T11:11:01;26.50;99.90
3713;DHT22;1872;51.406;6.856;2023-09-07T11:13:28;26.50;99.90
3713;DHT22;1872;51.406;6.856;2023-09-07T11:15:58;26.60;99.90
3713;DHT22;1872;51.406;6.856;2023-09-07T11:18:25;26.40;99.90
3713;DHT22;1872;51.406;6.856;2023-09-07T11:20:51;26.30;99.90
3713;DHT22;1872;51.406;6.856;2023-09-07T11:23:18;26.10;99.90
3713;DHT22;1872;51.406;6.856;2023-09-07T11:25:45;26.10;99.90
3713;DHT22;1872;51.406;6.856;2023-09-07T11:28:11;26.10;99.90
3713;DHT22;1872;51.406;6.856;2023-09-07T11:30:37;26.20;99.90
3713;DHT22;1872;51.406;6.856;2023-09-07T11:33:05;26.30;99.90
3713;DHT22;1872;51.406;6.856;2023-09-07T11:35:32;26.40;99.90
3713;DHT22;1872;51.406;6.856;2023-09-07T11:38:03;26.50;99.90
3713;DHT22;1872;51.406;6.856;2023-09-07T11:40:30;26.60;99.90
3713;DHT22;1872;51.406;6.856;2023-09-07T11:42:56;26.70;99.90
3713;DHT22;1872;51.406;6.856;2023-09-07T11:45:22;26.70;99.90
3713;DHT22;1872;51.406;6.856;2023-09-07T11:47:48;26.80;99.90
3713;DHT22;1872;51.406;6.856;2023-09-07T11:50:17;26.80;99.90
3713;DHT22;1872;51.406;6.856;2023-09-07T11:52:43;26.80;99.90
3713;DHT22;1872;51.406;6.856;2023-09-07T11:55:08;26.60;99.90
3713;DHT22;1872;51.406;6.856;2023-09-07T11:57:36;26.60;99.90
3713;DHT22;1872;51.406;6.856;2023-09-07T12:00:02;26.60;99.90
3713;DHT22;1872;51.406;6.856;2023-09-07T12:02:28;26.60;99.90
3713;DHT22;1872;51.406;6.856;2023-09-07T12:04:54;26.70;99.90
3713;DHT22;1872;51.406;6.856;2023-09-07T12:07:19;26.80;99.90
3713;DHT22;1872;51.406;6.856;2023-09-07T12:09:45;26.80;99.90
3713;DHT22;1872;51.406;6.856;2023-09-07T12:12:11;26.80;99.90
3713;DHT22;1872;51.406;6.856;2023-09-07T12:14:36;26.60;99.90
3713;DHT22;1872;51.406;6.856;2023-09-07T12:17:02;26.30;99.90
3713;DHT22;1872;51.406;6.856;2023-09-07T12:19:29;26.30;99.90
3713;DHT22;1872;51.406;6.856;2023-09-07T12:21:55;26.20;99.90
3713;DHT22;1872;51.406;6.856;2023-09-07T12:24:21;26.30;99.90
3713;DHT22;1872;51.406;6.856;2023-09-07T12:26:47;26.50;99.90
3713;DHT22;1872;51.406;6.856;2023-09-07T12:29:12;26.60;99.90
3713;DHT22;1872;51.406;6.856;2023-09-07T12:31:38;26.70;99.90
3713;DHT22;1872;51.406;6.856;2023-09-07T12:34:04;26.80;99.90
3713;DHT22;1872;51.406;6.856;2023-09-07T12:36:30;26.90;99.70
3713;DHT22;1872;51.406;6.856;2023-09-07T12:38:56;27.10;98.80
3713;DHT22;1872;51.406;6.856;2023-09-07T12:41:30;27.10;99.30
3713;DHT22;1872;51.406;6.856;2023-09-07T12:43:56;27.20;99.40
3713;DHT22;1872;51.406;6.856;2023-09-07T12:46:22;27.30;99.40
3713;DHT22;1872;51.406;6.856;2023-09-07T12:48:47;27.30;99.30
3713;DHT22;1872;51.406;6.856;2023-09-07T12:51:13;27.30;99.10
3713;DHT22;1872;51.406;6.856;2023-09-07T12:53:39;27.40;98.70
3713;DHT22;1872;51.406;6.856;2023-09-07T12:56:05;27.40;98.90
3713;DHT22;1872;51.406;6.856;2023-09-07T12:58:31;27.40;98.50
3713;DHT22;1872;51.406;6.856;2023-09-07T13:00:56;27.40;98.30
3713;DHT22;1872;51.406;6.856;2023-09-07T13:03:22;27.40;97.90
3713;DHT22;1872;51.406;6.856;2023-09-07T13:05:48;27.50;97.70
3713;DHT22;1872;51.406;6.856;2023-09-07T13:08:14;27.50;97.60
3713;DHT22;1872;51.406;6.856;2023-09-07T13:10:40;27.50;97.80
3713;DHT22;1872;51.406;6.856;2023-09-07T13:13:06;27.50;98.10
3713;DHT22;1872;51.406;6.856;2023-09-07T13:15:33;27.40;98.30
3713;DHT22;1872;51.406;6.856;2023-09-07T13:17:58;27.30;98.00
3713;DHT22;1872;51.406;6.856;2023-09-07T13:20:24;27.30;97.70
3713;DHT22;1872;51.406;6.856;2023-09-07T13:22:50;27.30;97.60
3713;DHT22;1872;51.406;6.856;2023-09-07T13:25:15;27.30;97.60
3713;DHT22;1872;51.406;6.856;2023-09-07T13:27:41;27.30;97.10
3713;DHT22;1872;51.406;6.856;2023-09-07T13:30:07;27.40;97.00
3713;DHT22;1872;51.406;6.856;2023-09-07T13:32:37;27.50;97.10
3713;DHT22;1872;51.406;6.856;2023-09-07T13:35:04;27.60;97.20
3713;DHT22;1872;51.406;6.856;2023-09-07T13:37:30;27.70;97.40
3713;DHT22;1872;51.406;6.856;2023-09-07T13:39:56;27.60;97.30
3713;DHT22;1872;51.406;6.856;2023-09-07T13:42:21;27.70;97.40
3713;DHT22;1872;51.406;6.856;2023-09-07T13:44:47;27.70;97.30
3713;DHT22;1872;51.406;6.856;2023-09-07T13:47:15;27.80;97.40
3713;DHT22;1872;51.406;6.856;2023-09-07T13:49:40;27.80;97.90
3713;DHT22;1872;51.406;6.856;2023-09-07T13:52:08;27.80;97.50
3713;DHT22;1872;51.406;6.856;2023-09-07T13:54:34;27.80;97.50
3713;DHT22;1872;51.406;6.856;2023-09-07T13:56:59;27.80;97.60
3713;DHT22;1872;51.406;6.856;2023-09-07T13:59:25;27.80;97.60
3713;DHT22;1872;51.406;6.856;2023-09-07T14:01:54;27.80;97.60
3713;DHT22;1872;51.406;6.856;2023-09-07T14:04:19;27.80;97.50
3713;DHT22;1872;51.406;6.856;2023-09-07T14:06:45;27.80;97.50
3713;DHT22;1872;51.406;6.856;2023-09-07T14:09:11;27.90;97.50
3713;DHT22;1872;51.406;6.856;2023-09-07T14:11:36;27.80;97.40
3713;DHT22;1872;51.406;6.856;2023-09-07T14:14:03;27.90;97.40
3713;DHT22;1872;51.406;6.856;2023-09-07T14:16:28;27.90;97.40
3713;DHT22;1872;51.406;6.856;2023-09-07T14:18:55;27.90;97.40
3713;DHT22;1872;51.406;6.856;2023-09-07T14:21:20;27.90;97.30
3713;DHT22;1872;51.406;6.856;2023-09-07T14:23:46;27.90;97.00
3713;DHT22;1872;51.406;6.856;2023-09-07T14:26:12;27.90;97.00
3713;DHT22;1872;51.406;6.856;2023-09-07T14:28:37;27.90;97.00
3713;DHT22;1872;51.406;6.856;2023-09-07T14:31:05;27.90;96.90
3713;DHT22;1872;51.406;6.856;2023-09-07T14:33:33;28.00;96.90
3713;DHT22;1872;51.406;6.856;2023-09-07T14:35:59;27.90;96.80
3713;DHT22;1872;51.406;6.856;2023-09-07T14:38:25;27.90;96.70
3713;DHT22;1872;51.406;6.856;2023-09-07T14:40:53;28.00;96.60
3713;DHT22;1872;51.406;6.856;2023-09-07T14:43:22;28.00;96.50
3713;DHT22;1872;51.406;6.856;2023-09-07T14:45:48;28.10;96.50
3713;DHT22;1872;51.406;6.856;2023-09-07T14:48:14;28.10;96.60
3713;DHT22;1872;51.406;6.856;2023-09-07T14:50:40;28.20;96.10
3713;DHT22;1872;51.406;6.856;2023-09-07T14:53:06;28.20;96.10
3713;DHT22;1872;51.406;6.856;2023-09-07T14:55:32;28.20;96.20
3713;DHT22;1872;51.406;6.856;2023-09-07T14:57:58;28.10;96.30
3713;DHT22;1872;51.406;6.856;2023-09-07T15:00:24;28.10;96.20
3713;DHT22;1872;51.406;6.856;2023-09-07T15:02:52;28.00;96.20
3713;DHT22;1872;51.406;6.856;2023-09-07T15:05:17;28.00;95.80
3713;DHT22;1872;51.406;6.856;2023-09-07T15:07:43;28.10;95.80
3713;DHT22;1872;51.406;6.856;2023-09-07T15:10:08;28.10;95.60
3713;DHT22;1872;51.406;6.856;2023-09-07T15:12:35;28.10;95.80
3713;DHT22;1872;51.406;6.856;2023-09-07T15:15:00;28.00;96.00
3713;DHT22;1872;51.406;6.856;2023-09-07T15:17:27;27.90;96.00
3713;DHT22;1872;51.406;6.856;2023-09-07T15:19:53;28.00;95.90
3713;DHT22;1872;51.406;6.856;2023-09-07T15:22:18;28.00;95.80
3713;DHT22;1872;51.406;6.856;2023-09-07T15:24:44;28.00;95.70
3713;DHT22;1872;51.406;6.856;2023-09-07T15:27:11;28.00;95.40
3713;DHT22;1872;51.406;6.856;2023-09-07T15:29:37;28.10;95.20
3713;DHT22;1872;51.406;6.856;2023-09-07T15:32:04;28.20;95.00
3713;DHT22;1872;51.406;6.856;2023-09-07T15:34:29;28.20;94.90
3713;DHT22;1872;51.406;6.856;2023-09-07T15:36:55;28.20;95.00
3713;DHT22;1872;51.406;6.856;2023-09-07T15:39:21;28.20;95.20
3713;DHT22;1872;51.406;6.856;2023-09-07T15:41:46;28.10;95.30
3713;DHT22;1872;51.406;6.856;2023-09-07T15:44:12;28.10;95.20
3713;DHT22;1872;51.406;6.856;2023-09-07T15:46:38;28.00;95.20
3713;DHT22;1872;51.406;6.856;2023-09-07T15:49:18;28.00;95.20
3713;DHT22;1872;51.406;6.856;2023-09-07T15:51:44;28.00;95.10
3713;DHT22;1872;51.406;6.856;2023-09-07T15:54:10;28.10;95.10
3713;DHT22;1872;51.406;6.856;2023-09-07T15:56:35;28.10;95.20
3713;DHT22;1872;51.406;6.856;2023-09-07T15:59:01;28.00;95.40